This is the latest recevied weather packets stored in our database for station/object AI9F. If no packets are shown the sender has not sent any weather packets the latest 10 day(s).
| Time | Temp. | Humidity | Pressure | Rain* | Wind** | Luminosity | Snow |
|---|---|---|---|---|---|---|---|
| 1777569945 | 17.22° C | 44% | 1018.5 hPa | 0 mm | - | 831 W/m² | - |
| 1777569641 | 16.67° C | 38% | 1018.6 hPa | 0 mm | - | 833 W/m² | - |
| 1777569337 | 16.67° C | 47% | 1018.7 hPa | 0 mm | - | 825 W/m² | - |
| 1777569034 | 17.22° C | 42% | 1018.7 hPa | 0 mm | - | 820 W/m² | - |
| 1777568731 | 17.22° C | 44% | 1018.7 hPa | 0 mm | - | 812 W/m² | - |
| 1777568428 | 16.67° C | 38% | 1018.6 hPa | 0 mm | - | 806 W/m² | - |
| 1777568125 | 16.67° C | 41% | 1018.5 hPa | 0 mm | - | 799 W/m² | - |
| 1777567822 | 16.67° C | 44% | 1018.7 hPa | 0 mm | - | 797 W/m² | - |
| 1777567518 | 16.67° C | 42% | 1018.7 hPa | 0 mm | - | 789 W/m² | - |
| 1777567215 | 16.11° C | 49% | 1018.8 hPa | 0 mm | - | 783 W/m² | - |
| 1777566914 | 16.67° C | 42% | 1018.7 hPa | 0 mm | - | 778 W/m² | - |
| 1777566611 | 16.11° C | 43% | 1018.7 hPa | 0 mm | - | 770 W/m² | - |
| 1777566308 | 16.67° C | 43% | 1018.8 hPa | 0 mm | - | 764 W/m² | - |
| 1777566006 | 16.11° C | 50% | 1018.9 hPa | 0 mm | - | 754 W/m² | - |
| 1777565701 | 15.56° C | 41% | 1018.9 hPa | 0 mm | - | 749 W/m² | - |
| 1777565398 | 15° C | 49% | 1019.1 hPa | 0 mm | - | 736 W/m² | - |
| 1777565094 | 15° C | 44% | 1019.1 hPa | 0 mm | - | 718 W/m² | - |
| 1777564790 | 15° C | 43% | 1018.9 hPa | 0 mm | - | 440 W/m² | - |
| 1777564484 | 15° C | 44% | 1019 hPa | 0 mm | - | 124 W/m² | - |
| 1777564180 | 15° C | 44% | 1019.1 hPa | 0 mm | - | 132 W/m² | - |
| 1777563877 | 14.44° C | 49% | 1019.2 hPa | 0 mm | - | 81 W/m² | - |
| 1777563573 | 14.44° C | 52% | 1019.1 hPa | 0 mm | - | 65 W/m² | - |
| 1777563273 | 13.89° C | 46% | 1018.8 hPa | 0 mm | - | 63 W/m² | - |
| 1777562970 | 14.44° C | 48% | 1018.9 hPa | 0 mm | - | 62 W/m² | - |
| 1777562666 | 14.44° C | 50% | 1018.9 hPa | 0 mm | - | 62 W/m² | - |
* Rain latest hour (hover to see other rain measurements)
** Current wind speed in m/s (hover to see current wind gust speed)